createdAt,value
2022-08-01T00:00:03.714Z,5.00
2022-08-01T00:02:32.257Z,3.60
2022-08-01T00:04:59.206Z,5.00
2022-08-01T00:07:25.766Z,4.25
2022-08-01T00:09:52.522Z,5.75
2022-08-01T00:12:19.087Z,5.00
2022-08-01T00:14:45.658Z,6.00
2022-08-01T00:17:12.274Z,6.20
2022-08-01T00:19:38.915Z,5.40
2022-08-01T00:22:05.775Z,6.00
2022-08-01T00:24:32.638Z,5.75
2022-08-01T00:26:59.268Z,5.00
2022-08-01T00:30:12.431Z,5.00
2022-08-01T00:32:12.459Z,4.25
2022-08-01T00:34:39.020Z,5.50
2022-08-01T00:37:05.551Z,5.00
2022-08-01T00:39:34.207Z,5.00
2022-08-01T00:42:01.369Z,6.00
2022-08-01T00:44:28.337Z,5.75
2022-08-01T00:46:54.950Z,6.00
2022-08-01T00:49:21.749Z,5.40
2022-08-01T00:51:49.316Z,6.00
2022-08-01T00:54:16.983Z,6.60
2022-08-01T00:56:44.015Z,5.50
2022-08-01T00:59:12.228Z,6.00
2022-08-01T01:01:40.925Z,4.50
2022-08-01T01:04:13.591Z,5.60
2022-08-01T01:06:49.394Z,5.00
2022-08-01T01:09:34.011Z,4.60
2022-08-01T01:12:16.869Z,5.00
2022-08-01T01:15:03.691Z,5.25
2022-08-01T01:17:51.414Z,5.00
2022-08-01T01:20:19.388Z,5.00
2022-08-01T01:22:54.902Z,5.20
2022-08-01T01:25:36.702Z,4.20
2022-08-01T01:28:15.462Z,5.00
2022-08-01T01:30:43.775Z,6.00
2022-08-01T01:33:12.181Z,5.00
2022-08-01T01:35:41.253Z,5.40
2022-08-01T01:38:28.032Z,4.20
2022-08-01T01:40:56.841Z,4.50
2022-08-01T01:43:33.290Z,4.80
2022-08-01T01:46:01.210Z,4.00
2022-08-01T01:48:28.839Z,5.00
2022-08-01T01:50:57.772Z,4.00
2022-08-01T01:53:25.103Z,5.00
2022-08-01T01:55:53.882Z,4.00
2022-08-01T01:58:21.641Z,4.75
2022-08-01T02:00:49.507Z,5.00
2022-08-01T02:03:18.659Z,5.00
2022-08-01T02:05:45.354Z,3.25
2022-08-01T02:08:14.078Z,5.00
2022-08-01T02:10:42.148Z,5.00
2022-08-01T02:13:09.851Z,5.60
2022-08-01T02:15:59.737Z,5.00
2022-08-01T02:18:27.217Z,5.75
2022-08-01T02:20:55.559Z,4.00
2022-08-01T02:23:24.720Z,5.00
2022-08-01T02:26:09.923Z,6.00
2022-08-01T02:28:42.496Z,4.00
2022-08-01T02:31:10.572Z,4.75
2022-08-01T02:33:39.073Z,5.00
2022-08-01T02:36:31.246Z,4.50
2022-08-01T02:38:55.748Z,3.50
2022-08-01T02:41:26.142Z,5.40
2022-08-01T02:43:53.763Z,5.00
2022-08-01T02:46:34.403Z,5.00
2022-08-01T02:49:02.525Z,6.00
2022-08-01T02:51:30.313Z,5.00
2022-08-01T02:53:58.227Z,5.00
2022-08-01T02:56:25.440Z,5.75
2022-08-01T02:58:52.806Z,4.60
2022-08-01T03:01:21.737Z,5.00
2022-08-01T03:03:48.774Z,3.60
2022-08-01T03:06:15.985Z,5.00
2022-08-01T03:08:43.475Z,5.00
2022-08-01T03:11:10.304Z,5.00
2022-08-01T03:13:37.970Z,6.00
2022-08-01T03:16:05.411Z,5.00
2022-08-01T03:18:33.603Z,4.00
2022-08-01T03:21:01.221Z,5.80
2022-08-01T03:23:37.968Z,5.00
2022-08-01T03:26:06.235Z,4.80
2022-08-01T03:28:33.029Z,5.00
2022-08-01T03:31:00.810Z,5.00
2022-08-01T03:33:27.746Z,4.75
2022-08-01T03:35:55.319Z,5.00
2022-08-01T03:38:24.283Z,4.80
2022-08-01T03:40:54.365Z,6.00
2022-08-01T03:43:24.083Z,5.00
2022-08-01T03:45:52.510Z,4.50
2022-08-01T03:48:20.517Z,4.75
2022-08-01T03:50:49.755Z,5.00
2022-08-01T03:53:16.775Z,4.00
2022-08-01T03:55:44.851Z,5.00
2022-08-01T03:58:11.910Z,5.00
2022-08-01T04:00:42.468Z,5.00
2022-08-01T04:03:09.582Z,5.00
2022-08-01T04:05:36.825Z,4.80
2022-08-01T04:08:03.892Z,5.20
2022-08-01T04:10:31.720Z,5.00
2022-08-01T04:12:58.316Z,5.75
2022-08-01T04:15:26.088Z,3.80
2022-08-01T04:17:52.745Z,3.25
2022-08-01T04:20:19.344Z,5.50
2022-08-01T04:22:46.093Z,4.00
2022-08-01T04:25:15.744Z,5.60
2022-08-01T04:27:50.080Z,5.00
2022-08-01T04:30:21.076Z,5.00
2022-08-01T04:32:48.649Z,5.00
2022-08-01T04:35:23.358Z,5.20
2022-08-01T04:38:06.671Z,5.25
2022-08-01T04:40:33.551Z,5.60
2022-08-01T04:43:00.213Z,4.75
2022-08-01T04:45:27.257Z,5.00
2022-08-01T04:47:54.165Z,5.00
2022-08-01T04:50:22.910Z,4.20
2022-08-01T04:52:49.714Z,6.00
2022-08-01T04:55:18.222Z,5.50
2022-08-01T04:57:46.062Z,4.40
2022-08-01T05:00:12.934Z,3.50
2022-08-01T05:02:39.603Z,4.60
2022-08-01T05:05:09.062Z,6.00
2022-08-01T05:07:45.235Z,5.50
2022-08-01T05:10:12.432Z,5.00
2022-08-01T05:12:39.002Z,5.00
2022-08-01T05:15:06.080Z,5.00
2022-08-01T05:17:32.789Z,4.00
2022-08-01T05:19:59.415Z,4.25
2022-08-01T05:22:26.776Z,5.00
2022-08-01T05:24:53.852Z,4.25
2022-08-01T05:27:20.773Z,5.60
2022-08-01T05:29:48.161Z,5.60
2022-08-01T05:32:14.782Z,3.00
2022-08-01T05:34:41.407Z,5.40
2022-08-01T05:37:08.608Z,5.60
2022-08-01T05:39:35.178Z,5.20
2022-08-01T05:42:01.936Z,5.60
2022-08-01T05:44:28.532Z,4.40
2022-08-01T05:46:55.160Z,4.25
2022-08-01T05:49:21.884Z,5.20
2022-08-01T05:51:48.509Z,6.00
2022-08-01T05:54:15.133Z,5.20
2022-08-01T05:56:41.816Z,5.00
2022-08-01T05:59:08.390Z,5.00
2022-08-01T06:01:35.121Z,4.80
2022-08-01T06:04:01.825Z,5.00
2022-08-01T06:06:28.463Z,5.00
2022-08-01T06:08:55.098Z,5.00
2022-08-01T06:11:21.735Z,6.00
2022-08-01T06:13:48.870Z,5.00
2022-08-01T06:16:16.120Z,4.60
2022-08-01T06:18:42.741Z,5.25
2022-08-01T06:21:09.353Z,5.25
2022-08-01T06:23:35.966Z,4.50
2022-08-01T06:26:02.624Z,4.50
2022-08-01T06:28:29.325Z,4.25
2022-08-01T06:30:55.925Z,6.00
2022-08-01T06:33:23.050Z,5.00
2022-08-01T06:35:49.708Z,4.50
2022-08-01T06:38:16.426Z,4.60
2022-08-01T06:40:43.428Z,5.00
2022-08-01T06:43:12.421Z,5.60
2022-08-01T06:45:39.878Z,5.00
2022-08-01T06:48:06.537Z,4.75
2022-08-01T06:50:33.372Z,5.20
2022-08-01T06:52:59.935Z,5.00
2022-08-01T06:55:26.587Z,5.40
2022-08-01T06:57:53.679Z,5.00
2022-08-01T07:00:23.537Z,4.00
2022-08-01T07:02:53.402Z,5.20
2022-08-01T07:05:20.362Z,4.50
2022-08-01T07:07:46.962Z,4.00
2022-08-01T07:10:13.753Z,5.80
2022-08-01T07:12:42.033Z,4.00
2022-08-01T07:15:09.874Z,6.00
2022-08-01T07:17:40.326Z,4.00
2022-08-01T07:20:10.976Z,5.00
2022-08-01T07:22:37.945Z,4.00
2022-08-01T07:25:05.863Z,6.00
2022-08-01T07:27:32.610Z,5.00
2022-08-01T07:29:59.301Z,4.50
2022-08-01T07:32:25.923Z,5.40
2022-08-01T07:34:52.863Z,7.00
2022-08-01T07:37:48.257Z,4.67
2022-08-01T07:40:06.628Z,6.00
2022-08-01T07:42:33.416Z,6.00
2022-08-01T07:45:00.009Z,5.40
2022-08-01T07:47:27.303Z,4.20
2022-08-01T07:49:59.648Z,6.00
2022-08-01T07:52:26.442Z,5.60
2022-08-01T07:54:53.059Z,4.40
2022-08-01T07:57:19.639Z,6.00
2022-08-01T07:59:46.202Z,5.00
2022-08-01T08:02:12.822Z,8.00
2022-08-01T08:04:39.431Z,7.00
2022-08-01T08:07:06.288Z,5.20
2022-08-01T08:09:37.105Z,6.50
2022-08-01T08:12:04.920Z,6.00
2022-08-01T08:14:32.726Z,4.60
2022-08-01T08:16:59.888Z,6.20
2022-08-01T08:19:38.408Z,6.40
2022-08-01T08:22:05.796Z,6.00
2022-08-01T08:24:32.539Z,6.00
2022-08-01T08:26:59.992Z,6.00
2022-08-01T08:29:28.103Z,6.60
2022-08-01T08:31:56.907Z,6.60
2022-08-01T08:34:24.624Z,5.00
2022-08-01T08:36:51.643Z,6.00
2022-08-01T08:39:19.712Z,4.60
2022-08-01T08:41:49.340Z,6.00
2022-08-01T08:44:17.374Z,8.80
2022-08-01T08:46:45.110Z,6.40
2022-08-01T08:49:12.557Z,6.00
2022-08-01T08:51:40.617Z,6.00
2022-08-01T08:54:08.009Z,5.60
2022-08-01T08:56:35.811Z,6.67
2022-08-01T08:59:03.699Z,5.80
2022-08-01T09:01:33.607Z,7.00
2022-08-01T09:04:04.742Z,7.00
2022-08-01T09:06:32.127Z,8.00
2022-08-01T09:08:59.132Z,6.40
2022-08-01T09:11:29.078Z,6.00
2022-08-01T09:14:04.897Z,5.50
2022-08-01T09:16:32.290Z,8.00
2022-08-01T09:19:16.020Z,7.00
2022-08-01T09:22:19.167Z,7.00
2022-08-01T09:24:59.455Z,6.60
2022-08-01T09:27:26.612Z,5.60
2022-08-01T09:30:00.482Z,6.00
2022-08-01T09:32:34.685Z,6.50
2022-08-01T09:35:43.174Z,6.00
2022-08-01T09:38:13.745Z,7.00
2022-08-01T09:40:46.641Z,7.00
2022-08-01T09:43:15.070Z,7.00
2022-08-01T09:45:45.601Z,7.00
2022-08-01T09:48:13.240Z,7.00
2022-08-01T09:50:46.951Z,6.40
2022-08-01T09:53:30.338Z,6.00
2022-08-01T09:56:09.426Z,7.00
2022-08-01T09:58:50.377Z,7.50
2022-08-01T10:01:21.742Z,4.75
2022-08-01T10:04:04.971Z,7.75
2022-08-01T10:06:33.228Z,6.00
2022-08-01T10:08:59.901Z,6.80
2022-08-01T10:11:37.565Z,6.00
2022-08-01T10:17:20.038Z,6.20
2022-08-01T10:19:47.457Z,6.20
2022-08-01T10:22:18.588Z,5.40
2022-08-01T10:24:47.346Z,5.60
2022-08-01T10:27:15.940Z,6.50
2022-08-01T10:30:07.554Z,7.00
2022-08-01T10:32:50.530Z,6.80
2022-08-01T10:38:21.716Z,7.40
2022-08-01T10:47:50.125Z,7.00
2022-08-01T10:50:51.174Z,7.00
2022-08-01T10:53:31.899Z,6.40
2022-08-01T10:56:13.032Z,6.00
2022-08-01T10:58:44.415Z,6.50
2022-08-01T11:01:14.551Z,6.00
2022-08-01T11:03:56.544Z,6.00
2022-08-01T11:06:26.266Z,6.40
2022-08-01T11:09:37.542Z,5.75
2022-08-01T11:12:13.716Z,4.20
2022-08-01T11:15:16.346Z,6.00
2022-08-01T11:18:04.488Z,6.00
2022-08-01T11:20:41.705Z,5.50
2022-08-01T11:23:10.963Z,6.50
2022-08-01T11:26:03.929Z,6.75
2022-08-01T11:28:37.113Z,6.50
2022-08-01T11:31:14.315Z,6.00
2022-08-01T11:33:50.649Z,6.25
2022-08-01T11:36:20.342Z,5.00
2022-08-01T11:39:23.959Z,4.00
2022-08-01T11:41:57.954Z,5.00
2022-08-01T11:44:28.393Z,7.50
2022-08-01T11:47:23.132Z,6.00
2022-08-01T11:49:57.508Z,5.20
2022-08-01T11:52:31.061Z,5.60
2022-08-01T11:55:00.739Z,5.50
2022-08-01T11:57:39.052Z,5.60
2022-08-01T12:00:23.961Z,5.00
2022-08-01T12:03:01.682Z,5.00
2022-08-01T12:09:40.615Z,5.60
2022-08-01T12:12:18.234Z,5.00
2022-08-01T12:14:48.594Z,5.60
2022-08-01T12:17:17.980Z,5.00
2022-08-01T12:19:44.760Z,4.00
2022-08-01T12:22:15.512Z,4.40
2022-08-01T12:24:45.188Z,4.00
2022-08-01T12:27:30.918Z,4.00
2022-08-01T12:29:58.984Z,4.60
2022-08-01T12:32:35.966Z,5.00
2022-08-01T12:35:18.388Z,5.00
2022-08-01T12:38:03.557Z,4.60
2022-08-01T12:40:34.965Z,5.40
2022-08-01T12:43:03.402Z,6.00
2022-08-01T12:45:33.314Z,5.00
2022-08-01T12:48:01.610Z,4.00
2022-08-01T12:50:30.745Z,4.80
2022-08-01T12:52:58.262Z,4.60
2022-08-01T12:55:33.799Z,4.80
2022-08-01T12:58:05.939Z,5.00
2022-08-01T13:00:32.584Z,4.20
2022-08-01T13:03:07.083Z,4.60
2022-08-01T13:05:49.428Z,5.00
2022-08-01T13:08:26.435Z,5.00
2022-08-01T13:11:01.340Z,4.00
2022-08-01T13:13:38.138Z,4.75
2022-08-01T13:16:06.587Z,5.00
2022-08-01T13:18:36.036Z,5.00
2022-08-01T13:21:10.151Z,5.00
2022-08-01T13:24:02.066Z,5.60
2022-08-01T13:26:38.355Z,5.00
2022-08-01T13:29:08.679Z,5.00
2022-08-01T13:31:36.030Z,6.00
2022-08-01T13:34:03.130Z,6.00
2022-08-01T13:36:30.025Z,5.00
2022-08-01T13:39:15.342Z,6.50
2022-08-01T13:41:41.986Z,5.00
2022-08-01T13:44:10.026Z,5.00
2022-08-01T13:46:37.476Z,5.40
2022-08-01T13:49:16.181Z,4.00
2022-08-01T13:51:43.237Z,5.00
2022-08-01T13:54:09.864Z,4.75
2022-08-01T13:57:36.369Z,5.00
2022-08-01T13:59:32.396Z,4.80
2022-08-01T14:01:59.032Z,4.00
2022-08-01T14:04:26.085Z,5.00
2022-08-01T14:06:52.769Z,4.50
2022-08-01T14:09:24.214Z,4.40
2022-08-01T14:11:51.595Z,4.00
2022-08-01T14:14:18.232Z,5.50
2022-08-01T14:16:46.123Z,6.50
2022-08-01T14:19:12.908Z,4.75
2022-08-01T14:21:39.602Z,6.00
2022-08-01T14:24:07.776Z,5.00
2022-08-01T14:26:34.570Z,5.00
2022-08-01T14:29:03.094Z,4.00
2022-08-01T14:31:34.023Z,5.40
2022-08-01T14:34:01.243Z,5.00
2022-08-01T14:36:31.070Z,6.00
2022-08-01T14:39:00.360Z,5.00
2022-08-01T14:41:27.956Z,4.50
2022-08-01T14:43:54.675Z,4.00
2022-08-01T14:46:21.336Z,4.00
2022-08-01T14:48:47.968Z,4.00
2022-08-01T14:51:14.697Z,4.00
2022-08-01T14:53:42.939Z,3.60
2022-08-01T14:56:13.868Z,4.00
2022-08-01T14:58:40.489Z,4.00
2022-08-01T15:01:07.342Z,4.00
2022-08-01T15:03:34.055Z,4.00
2022-08-01T15:06:00.829Z,5.00
2022-08-01T15:08:27.612Z,4.00
2022-08-01T15:10:54.199Z,4.00
2022-08-01T15:13:20.868Z,4.00
2022-08-01T15:15:48.152Z,4.00
2022-08-01T15:18:14.853Z,4.50
2022-08-01T15:20:41.888Z,3.00
2022-08-01T15:23:08.631Z,4.00
2022-08-01T15:25:40.396Z,3.00
2022-08-01T15:28:09.504Z,4.00
2022-08-01T15:30:36.206Z,3.00
2022-08-01T15:33:02.880Z,3.00
2022-08-01T15:35:29.596Z,3.00
2022-08-01T15:37:56.391Z,3.00
2022-08-01T15:40:23.082Z,3.00
2022-08-01T15:42:50.054Z,3.00
2022-08-01T15:45:44.430Z,3.40
2022-08-01T15:48:06.313Z,3.50
2022-08-01T15:50:33.169Z,3.20
2022-08-01T15:52:59.823Z,3.50
2022-08-01T15:55:26.531Z,3.00
2022-08-01T15:57:53.171Z,2.60
2022-08-01T16:00:19.844Z,4.00
2022-08-01T16:02:47.150Z,4.00
2022-08-01T16:05:13.916Z,4.00
2022-08-01T16:07:59.911Z,4.50
2022-08-01T16:10:28.970Z,4.50
2022-08-01T16:12:55.663Z,4.00
2022-08-01T16:15:22.317Z,3.00
2022-08-01T16:17:48.981Z,4.00
2022-08-01T16:20:16.391Z,4.00
2022-08-01T16:22:43.044Z,5.00
2022-08-01T16:25:11.595Z,4.50
2022-08-01T16:27:38.937Z,2.80
2022-08-01T16:30:06.209Z,3.00
2022-08-01T16:32:40.126Z,4.00
2022-08-01T16:35:14.803Z,4.60
2022-08-01T16:37:41.537Z,2.50
2022-08-01T16:40:08.334Z,4.00
2022-08-01T16:42:35.013Z,5.00
2022-08-01T16:45:03.971Z,3.80
2022-08-01T16:47:35.410Z,4.80
2022-08-01T16:50:02.044Z,4.50
2022-08-01T16:52:28.923Z,3.00
2022-08-01T16:54:57.654Z,2.00
2022-08-01T16:57:24.425Z,3.00
2022-08-01T16:59:51.056Z,3.20
2022-08-01T17:02:17.782Z,4.25
2022-08-01T17:04:44.484Z,4.25
2022-08-01T17:07:11.285Z,4.00
2022-08-01T17:09:42.913Z,4.00
2022-08-01T17:12:10.828Z,5.00
2022-08-01T17:14:40.069Z,3.40
2022-08-01T17:17:07.638Z,5.00
2022-08-01T17:19:34.443Z,4.25
2022-08-01T17:22:01.388Z,3.00
2022-08-01T17:24:28.010Z,4.00
2022-08-01T17:26:54.654Z,4.75
2022-08-01T17:29:21.296Z,4.00
2022-08-01T17:31:47.975Z,4.00
2022-08-01T17:34:14.716Z,3.25
2022-08-01T17:36:41.770Z,3.33
2022-08-01T17:39:09.544Z,4.00
2022-08-01T17:41:36.231Z,5.00
2022-08-01T17:44:02.935Z,5.00
2022-08-01T17:46:30.602Z,3.50
2022-08-01T17:48:57.547Z,4.60
2022-08-01T17:51:24.471Z,4.60
2022-08-01T17:53:57.046Z,5.00
2022-08-01T17:56:24.400Z,5.00
2022-08-01T17:58:52.279Z,4.40
2022-08-01T18:01:19.642Z,3.60
2022-08-01T18:03:46.631Z,6.00
2022-08-01T18:06:15.547Z,6.00
2022-08-01T18:08:42.557Z,4.00
2022-08-01T18:11:09.690Z,4.80
2022-08-01T18:13:36.492Z,4.50
2022-08-01T18:16:09.229Z,6.00
2022-08-01T18:18:36.465Z,7.00
2022-08-01T18:21:03.180Z,6.00
2022-08-01T18:23:29.803Z,5.00
2022-08-01T18:25:56.577Z,5.00
2022-08-01T18:28:33.656Z,6.00
2022-08-01T18:31:02.161Z,7.00
2022-08-01T18:33:28.882Z,6.00
2022-08-01T18:36:01.637Z,7.00
2022-08-01T18:38:29.479Z,6.00
2022-08-01T18:40:56.267Z,6.20
2022-08-01T18:43:22.927Z,5.50
2022-08-01T18:45:49.819Z,5.00
2022-08-01T18:48:16.635Z,6.00
2022-08-01T18:50:43.329Z,6.60
2022-08-01T18:53:10.640Z,5.40
2022-08-01T18:55:37.358Z,6.00
2022-08-01T18:58:04.772Z,6.60
2022-08-01T19:00:31.622Z,6.60
2022-08-01T19:02:58.426Z,6.25
2022-08-01T19:05:25.128Z,6.00
2022-08-01T19:08:06.822Z,7.00
2022-08-01T19:10:34.956Z,5.80
2022-08-01T19:13:02.506Z,5.60
2022-08-01T19:15:29.159Z,6.00
2022-08-01T19:17:55.761Z,6.00
2022-08-01T19:20:22.488Z,5.25
2022-08-01T19:22:49.126Z,7.00
2022-08-01T19:25:15.950Z,7.00
2022-08-01T19:27:45.726Z,6.25
2022-08-01T19:30:12.649Z,6.00
2022-08-01T19:32:39.758Z,6.00
2022-08-01T19:35:08.240Z,5.00
2022-08-01T19:37:34.983Z,6.75
2022-08-01T19:40:01.725Z,5.00
2022-08-01T19:42:29.766Z,6.00
2022-08-01T19:44:56.610Z,6.00
2022-08-01T19:47:23.303Z,6.00
2022-08-01T19:49:50.051Z,6.60
2022-08-01T19:52:19.377Z,6.00
2022-08-01T19:54:47.525Z,5.80
2022-08-01T19:57:15.930Z,5.40
2022-08-01T19:59:45.798Z,6.00
2022-08-01T20:02:16.419Z,7.00
2022-08-01T20:04:43.664Z,6.50
2022-08-01T20:07:10.580Z,8.00
2022-08-01T20:09:39.206Z,6.00
2022-08-01T20:12:06.480Z,7.00
2022-08-01T20:14:33.212Z,5.00
2022-08-01T20:17:00.231Z,5.40
2022-08-01T20:19:26.977Z,7.00
2022-08-01T20:22:03.074Z,6.00
2022-08-01T20:24:35.620Z,7.40
2022-08-01T20:27:07.221Z,6.60
2022-08-01T20:29:34.628Z,7.00
2022-08-01T20:32:02.167Z,6.50
2022-08-01T20:34:29.902Z,7.00
2022-08-01T20:36:57.253Z,6.00
2022-08-01T20:39:24.251Z,6.00
2022-08-01T20:42:00.032Z,7.00
2022-08-01T20:44:27.190Z,6.75
2022-08-01T20:46:54.586Z,9.00
2022-08-01T20:49:22.502Z,7.00
2022-08-01T20:51:50.886Z,7.00
2022-08-01T20:54:17.580Z,6.00
2022-08-01T20:56:50.270Z,6.00
2022-08-01T20:59:39.525Z,7.00
2022-08-01T21:02:27.179Z,6.00
2022-08-01T21:04:57.817Z,6.00
2022-08-01T21:07:28.888Z,6.00
2022-08-01T21:10:01.565Z,7.00
2022-08-01T21:12:33.280Z,6.20
2022-08-01T21:15:01.454Z,6.00
2022-08-01T21:17:33.978Z,7.20
2022-08-01T21:20:04.735Z,7.00
2022-08-01T21:22:37.411Z,6.00
2022-08-01T21:25:08.520Z,5.40
2022-08-01T21:27:36.183Z,7.00
2022-08-01T21:30:07.506Z,7.00
2022-08-01T21:32:34.998Z,5.00
2022-08-01T21:35:03.262Z,6.00
2022-08-01T21:37:30.839Z,6.00
2022-08-01T21:39:58.340Z,6.00
2022-08-01T21:42:26.393Z,6.00
2022-08-01T21:44:54.700Z,5.00
2022-08-01T21:47:22.899Z,6.00
2022-08-01T21:49:49.677Z,6.25
2022-08-01T21:52:21.489Z,6.25
2022-08-01T21:55:11.021Z,6.00
2022-08-01T21:58:02.434Z,6.00
2022-08-01T22:00:29.705Z,5.00
2022-08-01T22:02:59.351Z,5.00
2022-08-01T22:05:49.854Z,6.00
2022-08-01T22:08:16.194Z,5.00
2022-08-01T22:10:43.109Z,4.60
2022-08-01T22:13:11.502Z,4.80
2022-08-01T22:15:45.153Z,5.40
2022-08-01T22:18:12.137Z,6.00
2022-08-01T22:20:38.896Z,6.00
2022-08-01T22:23:06.663Z,5.80
2022-08-01T22:25:33.658Z,6.00
2022-08-01T22:28:06.173Z,3.75
2022-08-01T22:30:40.144Z,5.40
2022-08-01T22:33:16.643Z,5.00
2022-08-01T22:35:48.770Z,5.00
2022-08-01T22:38:17.278Z,6.00
2022-08-01T22:40:51.815Z,4.40
2022-08-01T22:43:24.368Z,4.00
2022-08-01T22:45:58.605Z,3.75
2022-08-01T22:48:26.293Z,4.80
2022-08-01T22:51:16.054Z,4.40
2022-08-01T22:53:53.613Z,3.00
2022-08-01T22:56:21.000Z,5.00
2022-08-01T22:58:48.667Z,5.40
2022-08-01T23:01:21.685Z,4.20
2022-08-01T23:03:50.511Z,4.00
2022-08-01T23:06:26.199Z,4.00
2022-08-01T23:08:55.769Z,4.25
2022-08-01T23:11:23.424Z,4.00
2022-08-01T23:13:51.511Z,2.40
2022-08-01T23:16:18.289Z,4.00
2022-08-01T23:18:46.095Z,4.00
2022-08-01T23:21:13.244Z,4.00
2022-08-01T23:23:40.436Z,4.00
2022-08-01T23:26:07.617Z,4.00
2022-08-01T23:28:34.780Z,4.00
2022-08-01T23:31:01.647Z,2.40
2022-08-01T23:33:28.364Z,2.00
2022-08-01T23:35:55.093Z,2.80
2022-08-01T23:38:21.706Z,2.40
2022-08-01T23:40:50.138Z,2.25
2022-08-01T23:43:17.722Z,4.00
2022-08-01T23:46:03.548Z,3.00
2022-08-01T23:48:31.892Z,3.00
2022-08-01T23:50:58.502Z,4.00
2022-08-01T23:53:30.765Z,3.00
2022-08-01T23:55:58.404Z,3.00
2022-08-01T23:58:25.056Z,3.00
